首页
METAR-TAF:

METAR-TAF

机场 :

Wittmund, 德国

纬度: 53-33N, 经度: 007-40E, 海拔: 8米

当前天气观测

该预报发布于1小时和14分钟前的13:20 UTC
风速9节,风向西
温度 19°C
湿度 49%
气压 1016 hPa
能见度10公里或以上
少量云层高于3700英尺
散云层高于4500英尺

METAR: ETNT 041320Z 28009KT 9999 FEW037 SCT045 19/08 Q1016 BLU+BLU+

时间: 16:34 (14:34 UTC)

预报

该预报发布于1小时和16分钟前的13:18 UTC
预报有效从04日的 14点(UTC)到 04日的 23点(UTC)
风速8节,风向西转西北
能见度10公里或以上
少量云层高于3500英尺
散云层高于27000英尺
成为
从 04日的 19点(UTC)到 04日的 21点(UTC)
风速5节,风向南转南东
能见度10公里或以上
多云层高于12000英尺
多云层高于20000英尺

TAF: ETNT 041318Z 0414/0423 30008KT 9999 NSW FEW035 SCT270 BECMG 0419/0421 15005KT 9999 NSW BKN120 BKN200 BY ETGL

超过4000个机场的气象观测和天气预报(METAR&TAF报告)。

可查询的气象台以黄色和红色小点在地图上表示。

将鼠标移到小点上方,可查看气象台名称。

然后点击查看天气观测和预报。

如需切换地图:点击带黑十字的绿色按钮放大地图;点击带横线的绿色按钮缩小地图;或者点击绿色箭头查看邻近地区的地图。


METAR-TAF: